Time;durP1;ratioP1;P1;durP2;ratioP2;P2;SDS_P1;SDS_P2;PMS_P1;PMS_P2;Temp;Humidity;BMP_temperature;BMP_pressure;BME280_temperature;BME280_humidity;BME280_pressure;Samples;Min_cycle;Max_cycle;Signal;HPM_P1;HPM_P2
2024/02/22 00:02:01;;;;;;;25.85;23.65;;;;;;;;;;5046347;28;20028;-55
2024/02/22 00:04:28;;;;;;;25.90;23.70;;;;;;;;;;5046778;28;20033;-54
2024/02/22 00:06:54;;;;;;;26.80;24.50;;;;;;;;;;5046407;28;20025;-53
2024/02/22 00:09:19;;;;;;;25.52;23.42;;;;;;;;;;5046520;28;20506;-51
2024/02/22 00:11:45;;;;;;;25.25;23.15;;;;;;;;;;5049044;28;20065;-57
2024/02/22 00:14:13;;;;;;;25.50;23.40;;;;;;;;;;5052209;28;20060;-57
2024/02/22 00:16:39;;;;;;;24.80;22.70;;;;;;;;;;5050801;28;20075;-56
2024/02/22 00:19:05;;;;;;;24.67;22.58;;;;;;;;;;5048132;28;20036;-55
2024/02/22 00:21:31;;;;;;;24.45;22.35;;;;;;;;;;5046085;28;20071;-56
2024/02/22 00:23:57;;;;;;;24.65;22.55;;;;;;;;;;5046279;28;20025;-58
2024/02/22 00:26:25;;;;;;;24.85;22.75;;;;;;;;;;5045355;28;20029;-51
2024/02/22 00:28:51;;;;;;;24.63;22.52;;;;;;;;;;5028822;28;20025;-53
2024/02/22 00:31:17;;;;;;;24.40;22.30;;;;;;;;;;5029800;28;20089;-56
2024/02/22 00:33:45;;;;;;;24.15;22.05;;;;;;;;;;5029364;28;20026;-55
2024/02/22 00:36:11;;;;;;;24.05;21.95;;;;;;;;;;5028757;28;20452;-59
2024/02/22 00:38:37;;;;;;;23.90;21.90;;;;;;;;;;5028686;28;20037;-55
2024/02/22 00:41:04;;;;;;;23.67;21.67;;;;;;;;;;5027216;28;20084;-55
2024/02/22 00:43:30;;;;;;;23.67;21.67;;;;;;;;;;5028743;28;20026;-56
2024/02/22 00:45:56;;;;;;;24.27;22.17;;;;;;;;;;5029090;28;20040;-55
2024/02/22 00:48:22;;;;;;;24.30;22.20;;;;;;;;;;5027434;28;20022;-56
2024/02/22 00:50:48;;;;;;;24.35;22.25;;;;;;;;;;5028440;28;20029;-56
2024/02/22 00:53:15;;;;;;;26.20;24.10;;;;;;;;;;5027227;28;20022;-58
2024/02/22 00:55:41;;;;;;;24.73;22.63;;;;;;;;;;5028509;28;20033;-56
2024/02/22 00:58:07;;;;;;;24.65;22.55;;;;;;;;;;5028611;28;20476;-59
2024/02/22 01:00:33;;;;;;;25.05;22.95;;;;;;;;;;5028514;28;20124;-55
2024/02/22 01:02:59;;;;;;;25.33;23.23;;;;;;;;;;5028536;28;20041;-55
2024/02/22 01:05:26;;;;;;;26.50;24.30;;;;;;;;;;5027644;28;20068;-57
2024/02/22 01:07:52;;;;;;;27.98;25.67;;;;;;;;;;5028493;28;20029;-56
2024/02/22 01:10:18;;;;;;;28.20;25.90;;;;;;;;;;5028244;28;20029;-54
2024/02/22 01:12:44;;;;;;;28.30;26.00;;;;;;;;;;5028281;28;20022;-58
2024/02/22 01:15:10;;;;;;;27.58;25.38;;;;;;;;;;5028385;28;20037;-56
2024/02/22 01:17:36;;;;;;;28.13;25.83;;;;;;;;;;5028443;28;20064;-57
2024/02/22 01:20:04;;;;;;;27.98;25.67;;;;;;;;;;5028237;28;20041;-57
2024/02/22 01:22:30;;;;;;;28.55;26.25;;;;;;;;;;5028220;28;20025;-55
2024/02/22 01:24:56;;;;;;;27.95;25.65;;;;;;;;;;5027745;28;20044;-51
2024/02/22 01:27:22;;;;;;;28.63;26.33;;;;;;;;;;5028336;28;20036;-55
2024/02/22 01:29:48;;;;;;;28.80;26.50;;;;;;;;;;5028391;28;20045;-55
2024/02/22 01:32:14;;;;;;;28.00;25.70;;;;;;;;;;5028270;28;20075;-55
2024/02/22 01:34:40;;;;;;;28.67;26.38;;;;;;;;;;5031699;28;20092;-57
2024/02/22 01:37:07;;;;;;;28.33;26.02;;;;;;;;;;5031474;28;20021;-57
2024/02/22 01:39:34;;;;;;;27.70;25.40;;;;;;;;;;5031334;28;20025;-54
2024/02/22 01:42:00;;;;;;;27.58;25.27;;;;;;;;;;5031491;28;20039;-57
2024/02/22 01:44:30;;;;;;;29.38;26.95;;;;;;;;;;5031685;28;20033;-56
2024/02/22 01:46:56;;;;;;;28.90;26.50;;;;;;;;;;4992607;28;1094455;-57
2024/02/22 01:49:24;;;;;;;27.02;24.83;;;;;;;;;;5032463;28;20066;-55
2024/02/22 01:51:56;;;;;;;26.98;24.73;;;;;;;;;;5032321;28;20025;-54
2024/02/22 01:54:22;;;;;;;27.27;24.98;;;;;;;;;;5032551;28;20025;-57
2024/02/22 01:56:48;;;;;;;28.25;25.95;;;;;;;;;;5032075;28;20034;-54
2024/02/22 01:59:14;;;;;;;27.45;25.15;;;;;;;;;;5032086;28;20033;-59
2024/02/22 02:01:42;;;;;;;27.90;25.60;;;;;;;;;;5033019;28;20550;-57
2024/02/22 02:04:09;;;;;;;27.92;25.63;;;;;;;;;;5032589;28;20659;-57
2024/02/22 02:06:35;;;;;;;28.05;25.75;;;;;;;;;;5032663;28;20628;-55
2024/02/22 02:09:02;;;;;;;27.25;24.95;;;;;;;;;;5032476;28;20056;-58
2024/02/22 02:11:28;;;;;;;27.73;25.42;;;;;;;;;;5032125;28;20105;-58
2024/02/22 02:13:54;;;;;;;26.85;24.65;;;;;;;;;;5032340;28;20053;-53
2024/02/22 02:16:20;;;;;;;27.15;24.85;;;;;;;;;;5032137;28;20125;-53
2024/02/22 02:18:46;;;;;;;26.52;24.33;;;;;;;;;;5032006;28;20074;-56
2024/02/22 02:21:31;;;;;;;26.83;24.63;;;;;;;;;;5031897;28;20061;-56
2024/02/22 02:24:06;;;;;;;27.50;25.30;;;;;;;;;;5031731;28;20839;-58
2024/02/22 02:26:32;;;;;;;28.17;25.88;;;;;;;;;;5031832;28;20024;-57
2024/02/22 02:28:58;;;;;;;28.55;26.25;;;;;;;;;;5031569;28;20057;-57
2024/02/22 02:31:24;;;;;;;28.40;26.10;;;;;;;;;;5031733;28;20025;-53
2024/02/22 02:33:50;;;;;;;27.80;25.50;;;;;;;;;;5031549;28;20025;-57
2024/02/22 02:36:16;;;;;;;27.67;25.48;;;;;;;;;;5031554;28;20499;-57
2024/02/22 02:38:42;;;;;;;27.73;25.42;;;;;;;;;;5031570;28;20127;-57
2024/02/22 02:41:08;;;;;;;27.35;25.05;;;;;;;;;;5030373;28;20123;-58
2024/02/22 02:43:34;;;;;;;27.50;25.20;;;;;;;;;;5031467;28;20032;-55
2024/02/22 02:46:00;;;;;;;27.52;25.23;;;;;;;;;;5030830;28;20459;-55
2024/02/22 02:48:26;;;;;;;28.33;26.02;;;;;;;;;;5031188;28;20037;-60
2024/02/22 02:50:52;;;;;;;30.08;27.58;;;;;;;;;;5031404;28;20029;-60
2024/02/22 02:53:18;;;;;;;28.27;25.98;;;;;;;;;;5031384;28;20091;-56
2024/02/22 02:55:44;;;;;;;28.17;25.88;;;;;;;;;;5031583;28;20131;-55
2024/02/22 02:58:10;;;;;;;29.50;27.10;;;;;;;;;;5031491;28;20033;-57
2024/02/22 03:00:36;;;;;;;28.60;26.30;;;;;;;;;;5030955;28;20030;-52
2024/02/22 03:03:02;;;;;;;28.73;26.42;;;;;;;;;;5031180;28;20091;-55
2024/02/22 03:05:28;;;;;;;31.27;28.77;;;;;;;;;;5031234;28;20050;-56
2024/02/22 03:07:54;;;;;;;30.70;28.30;;;;;;;;;;5030830;28;20025;-58
2024/02/22 03:10:21;;;;;;;29.83;27.42;;;;;;;;;;5031222;28;20079;-55
2024/02/22 03:12:47;;;;;;;31.38;28.88;;;;;;;;;;5030782;28;20017;-58
2024/02/22 03:15:13;;;;;;;31.25;28.75;;;;;;;;;;5030883;28;20044;-56
2024/02/22 03:17:39;;;;;;;31.33;28.83;;;;;;;;;;5030765;28;20029;-56
2024/02/22 03:20:10;;;;;;;30.38;27.98;;;;;;;;;;5030809;28;20357;-56
2024/02/22 03:22:36;;;;;;;30.75;28.25;;;;;;;;;;5030670;28;20025;-55
2024/02/22 03:25:02;;;;;;;30.30;27.80;;;;;;;;;;5029411;28;20028;-53
2024/02/22 03:27:28;;;;;;;30.90;28.40;;;;;;;;;;5030863;28;20083;-51
2024/02/22 03:29:54;;;;;;;31.95;29.45;;;;;;;;;;5029275;28;20030;-54
2024/02/22 03:32:20;;;;;;;31.08;28.58;;;;;;;;;;5030466;28;20025;-54
2024/02/22 03:34:47;;;;;;;30.90;28.40;;;;;;;;;;5030844;28;20047;-58
2024/02/22 03:37:13;;;;;;;31.23;28.73;;;;;;;;;;5029252;28;20036;-56
2024/02/22 03:39:41;;;;;;;32.00;29.50;;;;;;;;;;5030688;28;20029;-58
2024/02/22 03:42:08;;;;;;;31.38;28.88;;;;;;;;;;5030281;28;20052;-56
2024/02/22 03:44:34;;;;;;;31.23;28.73;;;;;;;;;;5030374;28;20109;-55
2024/02/22 03:47:00;;;;;;;30.95;28.45;;;;;;;;;;5029588;28;20514;-56
2024/02/22 03:49:27;;;;;;;30.23;27.83;;;;;;;;;;5030064;28;20025;-57
2024/02/22 03:51:53;;;;;;;30.83;28.38;;;;;;;;;;5030064;28;20475;-58
2024/02/22 03:54:19;;;;;;;30.60;28.20;;;;;;;;;;5030069;28;20075;-56
2024/02/22 03:56:45;;;;;;;30.42;28.02;;;;;;;;;;5029847;28;20066;-58
2024/02/22 03:59:11;;;;;;;30.80;28.38;;;;;;;;;;5028905;28;20057;-55
2024/02/22 04:01:37;;;;;;;29.77;27.38;;;;;;;;;;5030118;28;20455;-54
2024/02/22 04:04:03;;;;;;;29.23;26.83;;;;;;;;;;5029874;28;20083;-54
2024/02/22 04:06:29;;;;;;;29.73;27.33;;;;;;;;;;5028753;28;20048;-57
2024/02/22 04:08:57;;;;;;;30.48;28.02;;;;;;;;;;5029956;28;20036;-55
2024/02/22 04:11:23;;;;;;;29.10;26.70;;;;;;;;;;5030109;28;20025;-55
2024/02/22 04:13:49;;;;;;;28.67;26.38;;;;;;;;;;5030098;28;20097;-57
2024/02/22 04:16:15;;;;;;;29.55;27.15;;;;;;;;;;5030135;28;20025;-53
2024/02/22 04:18:41;;;;;;;31.35;28.75;;;;;;;;;;5029733;28;20026;-56
2024/02/22 04:21:07;;;;;;;28.52;26.23;;;;;;;;;;5029884;28;20036;-59
2024/02/22 04:23:35;;;;;;;29.20;26.80;;;;;;;;;;5029570;28;20028;-57
2024/02/22 04:26:02;;;;;;;28.07;25.77;;;;;;;;;;5028454;28;20063;-55
2024/02/22 04:28:28;;;;;;;25.77;23.63;;;;;;;;;;5028970;28;20025;-54
2024/02/22 04:30:54;;;;;;;23.02;21.02;;;;;;;;;;5029419;28;20028;-56
2024/02/22 04:33:20;;;;;;;22.63;20.65;;;;;;;;;;5028401;28;20060;-56
2024/02/22 04:35:46;;;;;;;22.20;20.30;;;;;;;;;;5029306;28;20021;-55
2024/02/22 04:38:12;;;;;;;22.02;20.02;;;;;;;;;;5040682;28;20034;-54
2024/02/22 04:40:38;;;;;;;21.30;19.30;;;;;;;;;;5046712;28;20524;-57
2024/02/22 04:43:04;;;;;;;21.45;19.45;;;;;;;;;;5048934;28;20029;-52
2024/02/22 04:45:31;;;;;;;19.90;18.10;;;;;;;;;;5040858;28;20032;-55
2024/02/22 04:47:59;;;;;;;20.67;18.52;;;;;;;;;;5049173;28;20457;-56
2024/02/22 04:50:26;;;;;;;20.95;19.05;;;;;;;;;;5049404;28;20021;-58
2024/02/22 04:52:52;;;;;;;20.15;18.35;;;;;;;;;;5048938;28;20032;-59
2024/02/22 04:55:18;;;;;;;19.92;18.13;;;;;;;;;;5048937;28;20049;-55
2024/02/22 04:57:45;;;;;;;21.90;19.90;;;;;;;;;;5049195;28;20017;-56
2024/02/22 05:00:11;;;;;;;22.95;20.15;;;;;;;;;;5047656;28;20123;-59
2024/02/22 05:02:37;;;;;;;20.15;18.25;;;;;;;;;;5047885;28;20040;-57
2024/02/22 05:05:03;;;;;;;19.85;18.05;;;;;;;;;;5049401;28;20124;-56
2024/02/22 05:07:29;;;;;;;19.42;17.63;;;;;;;;;;5049508;28;20090;-56
2024/02/22 05:09:55;;;;;;;19.80;18.00;;;;;;;;;;5052876;28;20502;-57
2024/02/22 05:12:21;;;;;;;20.70;18.80;;;;;;;;;;5052015;28;20139;-58
2024/02/22 05:14:48;;;;;;;19.63;17.83;;;;;;;;;;5053235;28;20052;-56
2024/02/22 05:17:17;;;;;;;19.80;17.90;;;;;;;;;;5052989;28;20106;-60
2024/02/22 05:19:43;;;;;;;19.00;17.20;;;;;;;;;;5053112;28;20028;-58
2024/02/22 05:22:09;;;;;;;19.58;17.75;;;;;;;;;;5053090;28;20037;-59
2024/02/22 05:24:35;;;;;;;20.13;18.23;;;;;;;;;;5053181;28;20025;-59
2024/02/22 05:27:01;;;;;;;19.00;17.20;;;;;;;;;;5053178;28;20470;-58
2024/02/22 05:29:27;;;;;;;20.10;18.20;;;;;;;;;;5052479;28;20025;-58
2024/02/22 05:31:55;;;;;;;19.55;17.60;;;;;;;;;;5052356;28;20029;-54
2024/02/22 05:34:21;;;;;;;19.92;18.13;;;;;;;;;;5053030;28;20072;-56
2024/02/22 05:36:47;;;;;;;20.67;18.58;;;;;;;;;;5050892;28;20024;-57
2024/02/22 05:39:13;;;;;;;19.35;17.55;;;;;;;;;;5046479;28;20025;-60
2024/02/22 05:41:39;;;;;;;19.45;17.58;;;;;;;;;;5044270;28;20104;-55
2024/02/22 05:44:05;;;;;;;19.23;17.42;;;;;;;;;;5047408;28;20025;-57
2024/02/22 05:46:31;;;;;;;18.00;16.20;;;;;;;;;;5049123;28;20028;-57
2024/02/22 05:48:57;;;;;;;18.80;17.00;;;;;;;;;;5052274;28;20043;-54
2024/02/22 05:51:23;;;;;;;19.23;17.38;;;;;;;;;;5052520;28;20376;-56
2024/02/22 05:53:50;;;;;;;19.05;17.25;;;;;;;;;;5052203;28;20052;-60
2024/02/22 05:56:16;;;;;;;19.20;17.38;;;;;;;;;;5051979;28;20085;-56
2024/02/22 05:58:42;;;;;;;20.65;18.42;;;;;;;;;;5052081;28;20100;-57
2024/02/22 06:01:09;;;;;;;18.75;16.95;;;;;;;;;;5052431;28;20021;-58
2024/02/22 06:03:35;;;;;;;17.90;16.10;;;;;;;;;;5052269;28;20029;-57
2024/02/22 06:06:02;;;;;;;18.42;16.63;;;;;;;;;;5052328;28;20115;-55
2024/02/22 06:08:28;;;;;;;17.10;15.40;;;;;;;;;;5051950;28;20029;-59
2024/02/22 06:10:54;;;;;;;18.52;16.63;;;;;;;;;;5051900;28;20067;-57
2024/02/22 06:13:20;;;;;;;17.45;15.65;;;;;;;;;;5052065;28;20021;-56
2024/02/22 06:15:47;;;;;;;16.75;15.05;;;;;;;;;;5051795;28;20102;-56
2024/02/22 06:18:13;;;;;;;22.63;18.45;;;;;;;;;;5051918;28;20119;-55
2024/02/22 06:20:39;;;;;;;16.73;15.02;;;;;;;;;;5051750;28;20657;-53
2024/02/22 06:23:05;;;;;;;16.67;14.98;;;;;;;;;;5051891;28;20036;-58
2024/02/22 06:25:31;;;;;;;17.05;15.25;;;;;;;;;;5051875;28;20119;-56
2024/02/22 06:27:57;;;;;;;16.52;14.82;;;;;;;;;;5051348;28;20782;-55
2024/02/22 06:30:26;;;;;;;16.80;15.10;;;;;;;;;;5050961;28;20033;-55
2024/02/22 06:32:52;;;;;;;16.45;14.75;;;;;;;;;;5051437;28;20021;-52
2024/02/22 06:35:18;;;;;;;16.30;14.60;;;;;;;;;;5051651;28;20387;-57
2024/02/22 06:37:44;;;;;;;17.73;15.88;;;;;;;;;;5049937;28;20047;-60
2024/02/22 06:40:11;;;;;;;15.20;13.30;;;;;;;;;;5051027;28;20398;-59
2024/02/22 06:42:38;;;;;;;15.15;13.02;;;;;;;;;;5051980;28;20025;-59
2024/02/22 06:45:05;;;;;;;19.25;13.77;;;;;;;;;;5051989;28;20108;-60
2024/02/22 06:47:31;;;;;;;15.30;13.40;;;;;;;;;;5051861;28;20376;-58
2024/02/22 06:49:57;;;;;;;18.73;13.05;;;;;;;;;;5050429;28;20072;-56
2024/02/22 06:52:23;;;;;;;14.48;11.23;;;;;;;;;;5051213;28;20100;-55
2024/02/22 06:54:50;;;;;;;14.52;11.35;;;;;;;;;;5051356;28;20032;-56
2024/02/22 06:57:16;;;;;;;14.80;11.57;;;;;;;;;;5051282;28;20029;-57
2024/02/22 06:59:42;;;;;;;15.32;13.05;;;;;;;;;;5051255;28;20029;-59
2024/02/22 07:02:08;;;;;;;14.30;10.63;;;;;;;;;;5050763;28;20096;-59
2024/02/22 07:04:34;;;;;;;14.85;11.38;;;;;;;;;;5052189;28;20076;-56
2024/02/22 07:07:00;;;;;;;13.98;9.88;;;;;;;;;;5050793;28;20137;-57
2024/02/22 07:09:26;;;;;;;13.95;9.73;;;;;;;;;;5050813;28;20073;-55
2024/02/22 07:11:56;;;;;;;14.13;10.10;;;;;;;;;;5050899;28;20368;-61
2024/02/22 07:14:22;;;;;;;17.15;11.13;;;;;;;;;;5050941;28;20025;-56
2024/02/22 07:16:50;;;;;;;13.88;9.73;;;;;;;;;;5050689;28;20059;-60
2024/02/22 07:19:16;;;;;;;13.95;9.50;;;;;;;;;;5050588;28;20371;-60
2024/02/22 07:21:43;;;;;;;14.07;10.00;;;;;;;;;;5040429;28;20109;-62
2024/02/22 07:24:11;;;;;;;13.68;8.93;;;;;;;;;;5039780;28;20032;-60
2024/02/22 07:26:38;;;;;;;13.77;9.20;;;;;;;;;;5029359;28;20395;-59
2024/02/22 07:29:04;;;;;;;13.70;9.20;;;;;;;;;;5038303;28;20025;-57
2024/02/22 07:31:30;;;;;;;13.95;9.32;;;;;;;;;;5049736;28;20582;-56
2024/02/22 07:33:57;;;;;;;13.68;8.80;;;;;;;;;;5050636;28;20075;-56
2024/02/22 07:36:23;;;;;;;14.20;9.68;;;;;;;;;;5050687;28;20017;-58
2024/02/22 07:38:49;;;;;;;13.80;9.38;;;;;;;;;;5032536;28;20029;-58
2024/02/22 07:41:15;;;;;;;13.68;8.93;;;;;;;;;;5030546;28;20679;-58
2024/02/22 07:43:45;;;;;;;14.20;9.48;;;;;;;;;;5030347;28;20037;-58
2024/02/22 07:46:12;;;;;;;13.65;8.80;;;;;;;;;;5030483;28;20026;-60
2024/02/22 07:48:41;;;;;;;13.60;8.75;;;;;;;;;;5030055;28;20057;-56
2024/02/22 07:51:07;;;;;;;15.18;9.32;;;;;;;;;;5028971;28;20109;-55
2024/02/22 07:53:34;;;;;;;13.57;8.70;;;;;;;;;;5031425;28;20083;-60
2024/02/22 07:56:04;;;;;;;13.50;8.32;;;;;;;;;;5049007;28;20067;-55
2024/02/22 07:58:45;;;;;;;13.50;8.35;;;;;;;;;;5049846;28;20021;-54
2024/02/22 08:01:11;;;;;;;13.43;8.40;;;;;;;;;;5050308;28;20120;-53
2024/02/22 08:03:37;;;;;;;13.75;8.60;;;;;;;;;;5051405;28;20083;-56
2024/02/22 08:06:03;;;;;;;15.30;10.38;;;;;;;;;;5050113;28;20248;-56
2024/02/22 08:08:29;;;;;;;13.57;8.57;;;;;;;;;;5050596;28;20068;-54
2024/02/22 08:10:55;;;;;;;14.65;9.23;;;;;;;;;;5048334;28;20096;-57
2024/02/22 08:13:21;;;;;;;13.73;8.98;;;;;;;;;;5050186;28;20029;-55
2024/02/22 08:15:47;;;;;;;13.50;8.30;;;;;;;;;;5049485;28;20079;-56
2024/02/22 08:18:13;;;;;;;13.43;8.15;;;;;;;;;;5050033;28;20017;-56
2024/02/22 08:20:40;;;;;;;13.55;8.60;;;;;;;;;;5049894;28;20025;-56
2024/02/22 08:23:08;;;;;;;15.55;9.75;;;;;;;;;;5049504;28;20348;-55
2024/02/22 08:25:37;;;;;;;13.48;8.27;;;;;;;;;;5049744;28;20036;-54
2024/02/22 08:28:04;;;;;;;13.65;8.45;;;;;;;;;;5049533;28;20035;-54
2024/02/22 08:30:30;;;;;;;13.45;8.10;;;;;;;;;;5049239;28;20044;-52
2024/02/22 08:32:57;;;;;;;14.00;8.75;;;;;;;;;;5048198;28;20025;-53
2024/02/22 08:35:23;;;;;;;15.27;9.30;;;;;;;;;;5049682;28;20479;-51
2024/02/22 08:37:49;;;;;;;13.70;9.02;;;;;;;;;;5049429;28;20116;-52
2024/02/22 08:40:15;;;;;;;13.50;8.30;;;;;;;;;;5049186;28;20032;-49
2024/02/22 08:42:41;;;;;;;13.90;8.80;;;;;;;;;;5048483;28;20581;-62
2024/02/22 08:45:09;;;;;;;13.45;8.30;;;;;;;;;;5048178;28;20025;-62
2024/02/22 08:47:35;;;;;;;13.63;8.73;;;;;;;;;;5049317;28;20037;-55
2024/02/22 08:50:02;;;;;;;13.40;8.10;;;;;;;;;;5049120;28;20029;-53
2024/02/22 08:52:28;;;;;;;13.32;8.00;;;;;;;;;;5049324;28;20021;-55
2024/02/22 08:54:54;;;;;;;13.40;8.20;;;;;;;;;;5048956;28;20025;-53
2024/02/22 08:57:20;;;;;;;13.82;8.65;;;;;;;;;;5049041;28;20090;-52
2024/02/22 08:59:48;;;;;;;13.40;8.10;;;;;;;;;;5048481;28;20029;-55
2024/02/22 09:02:14;;;;;;;13.15;7.70;;;;;;;;;;5048677;28;20508;-55
2024/02/22 09:04:40;;;;;;;13.25;7.97;;;;;;;;;;5048932;28;20091;-56
2024/02/22 09:07:06;;;;;;;13.45;8.13;;;;;;;;;;5048934;28;20021;-57
2024/02/22 09:09:32;;;;;;;13.55;8.40;;;;;;;;;;5048007;28;20029;-53
2024/02/22 09:11:58;;;;;;;13.50;8.35;;;;;;;;;;5048947;28;20025;-53
2024/02/22 09:14:25;;;;;;;13.55;8.50;;;;;;;;;;5049301;28;20042;-55
2024/02/22 09:16:51;;;;;;;13.48;8.40;;;;;;;;;;5049212;28;20043;-53
2024/02/22 09:19:17;;;;;;;13.48;8.57;;;;;;;;;;5049342;28;20037;-54
2024/02/22 09:21:46;;;;;;;13.57;8.60;;;;;;;;;;5049151;28;20111;-54
2024/02/22 09:24:12;;;;;;;13.57;8.70;;;;;;;;;;5049134;28;20105;-51
2024/02/22 09:26:38;;;;;;;13.52;8.60;;;;;;;;;;5049347;28;20170;-54
2024/02/22 09:29:04;;;;;;;13.57;8.60;;;;;;;;;;5047831;28;20091;-52
2024/02/22 09:31:30;;;;;;;13.57;8.68;;;;;;;;;;5048789;28;20085;-53
2024/02/22 09:33:58;;;;;;;13.68;8.80;;;;;;;;;;5047032;28;20021;-53
2024/02/22 09:36:24;;;;;;;13.70;8.80;;;;;;;;;;5048652;28;20140;-58
2024/02/22 09:38:51;;;;;;;13.63;8.70;;;;;;;;;;5048833;28;20051;-53
2024/02/22 09:41:17;;;;;;;13.80;9.15;;;;;;;;;;5048553;28;20021;-53
2024/02/22 09:43:43;;;;;;;13.57;8.65;;;;;;;;;;5046962;28;20071;-58
2024/02/22 09:46:09;;;;;;;13.50;8.32;;;;;;;;;;5048466;28;20028;-55
2024/02/22 09:48:36;;;;;;;13.50;8.40;;;;;;;;;;5047715;28;20452;-52
2024/02/22 09:51:04;;;;;;;13.57;8.50;;;;;;;;;;5048832;28;20033;-56
2024/02/22 09:53:30;;;;;;;13.60;8.52;;;;;;;;;;5049002;28;20052;-54
2024/02/22 09:55:56;;;;;;;13.32;8.00;;;;;;;;;;5052596;28;20061;-56
2024/02/22 09:58:22;;;;;;;13.40;8.07;;;;;;;;;;5052734;28;20045;-63
2024/02/22 10:00:50;;;;;;;13.40;8.10;;;;;;;;;;5051580;28;20036;-52
2024/02/22 10:03:16;;;;;;;13.40;7.93;;;;;;;;;;5052036;28;20025;-55
2024/02/22 10:05:42;;;;;;;13.52;7.90;;;;;;;;;;5052451;28;20025;-55
2024/02/22 10:08:09;;;;;;;13.32;7.82;;;;;;;;;;5052041;28;20395;-52
2024/02/22 10:10:35;;;;;;;13.23;8.10;;;;;;;;;;5052236;28;20513;-53
2024/02/22 10:13:01;;;;;;;13.20;7.75;;;;;;;;;;5051608;28;20063;-55
2024/02/22 10:15:29;;;;;;;13.27;7.80;;;;;;;;;;5051782;28;20101;-53
2024/02/22 10:17:55;;;;;;;13.27;7.82;;;;;;;;;;5052168;28;20017;-53
2024/02/22 10:20:30;;;;;;;13.20;7.78;;;;;;;;;;5050478;28;20032;-50
2024/02/22 10:23:04;;;;;;;13.10;7.65;;;;;;;;;;5051631;28;20159;-56
2024/02/22 10:25:31;;;;;;;12.80;7.50;;;;;;;;;;5052020;28;20036;-58
2024/02/22 10:27:57;;;;;;;12.40;7.22;;;;;;;;;;5051823;28;20040;-54
2024/02/22 10:30:26;;;;;;;12.70;7.40;;;;;;;;;;5052195;28;20036;-52
2024/02/22 10:32:55;;;;;;;12.73;7.30;;;;;;;;;;5051544;28;20021;-51
2024/02/22 10:35:23;;;;;;;12.27;7.18;;;;;;;;;;5051588;28;20108;-55
2024/02/22 10:37:52;;;;;;;11.70;6.88;;;;;;;;;;5051220;28;20025;-52
2024/02/22 10:40:19;;;;;;;11.40;6.68;;;;;;;;;;5051465;28;20427;-53
2024/02/22 10:42:45;;;;;;;12.20;7.10;;;;;;;;;;5051547;28;20029;-57
2024/02/22 10:45:11;;;;;;;12.07;7.07;;;;;;;;;;5051435;28;20416;-56
2024/02/22 10:47:37;;;;;;;11.30;6.63;;;;;;;;;;5051165;28;20056;-55
2024/02/22 10:50:05;;;;;;;11.20;6.53;;;;;;;;;;5051047;28;20025;-57
2024/02/22 10:52:33;;;;;;;12.32;7.20;;;;;;;;;;5049638;28;20090;-57
2024/02/22 10:55:03;;;;;;;11.88;6.95;;;;;;;;;;5050928;28;20040;-56
2024/02/22 10:57:31;;;;;;;11.57;6.80;;;;;;;;;;5051247;28;20082;-58
2024/02/22 10:59:59;;;;;;;11.80;6.90;;;;;;;;;;5051317;28;20029;-55
2024/02/22 11:02:27;;;;;;;12.05;7.05;;;;;;;;;;5050926;28;20057;-55
2024/02/22 11:04:58;;;;;;;12.18;7.07;;;;;;;;;;5050737;28;20145;-51
2024/02/22 11:07:24;;;;;;;11.80;6.90;;;;;;;;;;5051099;28;20044;-55
2024/02/22 11:09:54;;;;;;;12.35;7.18;;;;;;;;;;5050776;28;20040;-56
2024/02/22 11:12:20;;;;;;;12.55;7.32;;;;;;;;;;5056568;28;20021;-56
2024/02/22 11:14:46;;;;;;;12.27;7.10;;;;;;;;;;5052039;28;20096;-53
2024/02/22 11:17:16;;;;;;;12.50;7.30;;;;;;;;;;5049319;28;20056;-56
2024/02/22 11:19:44;;;;;;;12.80;7.50;;;;;;;;;;5050968;28;20394;-57
2024/02/22 11:22:16;;;;;;;12.57;7.40;;;;;;;;;;5050475;28;20043;-54
2024/02/22 11:24:42;;;;;;;12.25;7.18;;;;;;;;;;5050470;28;20501;-57
2024/02/22 11:27:09;;;;;;;12.30;7.15;;;;;;;;;;5050245;28;20449;-55
2024/02/22 11:29:36;;;;;;;12.10;7.10;;;;;;;;;;5050128;28;20450;-51
2024/02/22 11:32:03;;;;;;;12.35;7.20;;;;;;;;;;5050292;28;20021;-55
2024/02/22 11:34:30;;;;;;;12.80;7.70;;;;;;;;;;5050058;28;20071;-52
2024/02/22 11:37:19;;;;;;;11.60;6.80;;;;;;;;;;5050298;28;20155;-52
2024/02/22 11:39:58;;;;;;;11.30;6.60;;;;;;;;;;5050277;28;20029;-53
2024/02/22 11:42:25;;;;;;;11.32;6.63;;;;;;;;;;5049403;28;20032;-57
2024/02/22 11:44:54;;;;;;;11.80;6.90;;;;;;;;;;5050701;28;20020;-56
2024/02/22 11:47:20;;;;;;;11.60;6.80;;;;;;;;;;5049918;28;20413;-55
2024/02/22 11:49:46;;;;;;;12.05;7.07;;;;;;;;;;5049900;28;20491;-56
2024/02/22 11:52:12;;;;;;;11.90;7.00;;;;;;;;;;5049863;28;20064;-50
2024/02/22 11:54:38;;;;;;;11.88;6.90;;;;;;;;;;5049979;28;20025;-52
2024/02/22 11:57:05;;;;;;;11.73;6.88;;;;;;;;;;5049644;28;20029;-55
2024/02/22 11:59:32;;;;;;;11.90;6.97;;;;;;;;;;5050206;28;20071;-54
2024/02/22 12:02:01;;;;;;;11.70;6.88;;;;;;;;;;5049737;28;20657;-51
2024/02/22 12:04:32;;;;;;;12.32;7.22;;;;;;;;;;5049548;28;20029;-56
2024/02/22 12:06:59;;;;;;;11.88;6.93;;;;;;;;;;5049505;28;20323;-53
2024/02/22 12:09:25;;;;;;;12.40;7.20;;;;;;;;;;5048193;28;20052;-56
2024/02/22 12:11:51;;;;;;;12.40;7.30;;;;;;;;;;5049363;28;20081;-56
2024/02/22 12:14:17;;;;;;;12.57;7.30;;;;;;;;;;5049324;28;20108;-51
2024/02/22 12:16:46;;;;;;;12.48;7.30;;;;;;;;;;5047755;28;20021;-55
2024/02/22 12:19:15;;;;;;;12.27;7.10;;;;;;;;;;5049613;28;20510;-54
2024/02/22 12:21:41;;;;;;;12.40;7.28;;;;;;;;;;5049508;28;20036;-57
2024/02/22 12:24:07;;;;;;;12.20;7.18;;;;;;;;;;5049524;28;20086;-49
2024/02/22 12:26:33;;;;;;;11.88;7.00;;;;;;;;;;5049631;28;20028;-54
2024/02/22 12:28:59;;;;;;;11.77;6.95;;;;;;;;;;5048915;28;20025;-54
2024/02/22 12:31:27;;;;;;;11.50;6.80;;;;;;;;;;5049879;28;20028;-55
2024/02/22 12:33:53;;;;;;;13.75;11.73;;;;;;;;;;5049185;28;20048;-55
2024/02/22 12:36:20;;;;;;;12.82;7.60;;;;;;;;;;5050390;28;20087;-52
2024/02/22 12:38:47;;;;;;;12.77;7.47;;;;;;;;;;5049672;28;20410;-54
2024/02/22 12:41:17;;;;;;;12.30;7.20;;;;;;;;;;5049227;28;20487;-51
2024/02/22 12:43:49;;;;;;;12.50;7.30;;;;;;;;;;5049460;28;20433;-52
2024/02/22 12:46:15;;;;;;;12.38;7.20;;;;;;;;;;5050228;28;20032;-56
2024/02/22 12:48:42;;;;;;;11.82;6.93;;;;;;;;;;5047590;28;20037;-55
2024/02/22 12:51:09;;;;;;;12.18;7.13;;;;;;;;;;5049001;28;20041;-53
2024/02/22 12:53:35;;;;;;;12.07;7.10;;;;;;;;;;5049449;28;20433;-57
2024/02/22 12:56:01;;;;;;;11.85;6.95;;;;;;;;;;5049517;28;20548;-55
2024/02/22 12:58:28;;;;;;;12.48;7.32;;;;;;;;;;5049269;28;20036;-55
2024/02/22 13:00:54;;;;;;;12.70;7.45;;;;;;;;;;5049289;28;20021;-56
2024/02/22 13:03:24;;;;;;;12.40;7.30;;;;;;;;;;5050520;28;20033;-54
2024/02/22 13:05:50;;;;;;;12.75;7.40;;;;;;;;;;5047690;28;20091;-53
2024/02/22 13:08:16;;;;;;;12.60;7.40;;;;;;;;;;5049064;28;20347;-58
2024/02/22 13:10:42;;;;;;;12.38;7.18;;;;;;;;;;5048456;28;20069;-55
2024/02/22 13:13:08;;;;;;;12.57;7.40;;;;;;;;;;5046270;28;20072;-55
2024/02/22 13:15:34;;;;;;;12.20;7.10;;;;;;;;;;5048678;28;20082;-54
2024/02/22 13:18:01;;;;;;;12.38;7.20;;;;;;;;;;5049337;28;20052;-56
2024/02/22 13:20:30;;;;;;;12.25;7.13;;;;;;;;;;5049135;28;20398;-57
2024/02/22 13:22:56;;;;;;;12.50;7.28;;;;;;;;;;5048775;28;20426;-55
2024/02/22 13:25:23;;;;;;;12.52;7.30;;;;;;;;;;5045601;28;20032;-54
2024/02/22 13:27:49;;;;;;;12.25;7.15;;;;;;;;;;5038019;28;20025;-53
2024/02/22 13:30:15;;;;;;;12.80;7.50;;;;;;;;;;5052498;28;20025;-54
2024/02/22 13:32:42;;;;;;;12.68;7.40;;;;;;;;;;5053357;28;20024;-53
2024/02/22 13:35:08;;;;;;;12.43;7.22;;;;;;;;;;5052837;28;20588;-54
2024/02/22 13:37:35;;;;;;;12.75;7.47;;;;;;;;;;5052588;28;20047;-57
2024/02/22 13:40:04;;;;;;;12.95;7.57;;;;;;;;;;5052311;28;20685;-57
2024/02/22 13:42:31;;;;;;;13.23;7.75;;;;;;;;;;5052364;28;20499;-57
2024/02/22 13:44:56;;;;;;;12.60;7.30;;;;;;;;;;5051297;28;20037;-57
2024/02/22 13:47:25;;;;;;;12.40;7.25;;;;;;;;;;5052216;28;20037;-55
2024/02/22 13:49:51;;;;;;;12.80;7.40;;;;;;;;;;5051765;28;20021;-55
2024/02/22 13:52:17;;;;;;;11.95;6.97;;;;;;;;;;5052134;28;20025;-57
2024/02/22 13:54:43;;;;;;;12.18;7.10;;;;;;;;;;5052411;28;20029;-54
2024/02/22 13:57:11;;;;;;;12.70;7.40;;;;;;;;;;5051351;28;20395;-54
2024/02/22 13:59:37;;;;;;;12.60;7.30;;;;;;;;;;5052712;28;20072;-54
2024/02/22 14:02:03;;;;;;;12.55;7.32;;;;;;;;;;5052194;28;20131;-56
2024/02/22 14:04:29;;;;;;;12.10;7.10;;;;;;;;;;5052502;28;20495;-56
2024/02/22 14:06:55;;;;;;;12.48;7.30;;;;;;;;;;5052155;28;20104;-54
2024/02/22 14:09:21;;;;;;;12.48;7.30;;;;;;;;;;5051015;28;20060;-57
2024/02/22 14:11:47;;;;;;;12.90;7.50;;;;;;;;;;5051930;28;20101;-55
2024/02/22 14:14:13;;;;;;;12.55;7.32;;;;;;;;;;5044459;28;20025;-56
2024/02/22 14:16:39;;;;;;;12.75;7.40;;;;;;;;;;5032078;28;20479;-51
2024/02/22 14:19:05;;;;;;;12.63;7.38;;;;;;;;;;5031950;28;20037;-54
2024/02/22 14:21:31;;;;;;;12.40;7.20;;;;;;;;;;5042256;28;20074;-51